Time;durP1;ratioP1;P1;durP2;ratioP2;P2;SDS_P1;SDS_P2;PMS_P1;PMS_P2;Temp;Humidity;BMP_temperature;BMP_pressure;BME280_temperature;BME280_humidity;BME280_pressure;Samples;Min_cycle;Max_cycle;Signal;HPM_P1;HPM_P2
2023/07/05 00:02:23;;;;;;;6.68;6.07;;;22.00;99.90;;;;;;5290828;28;20034;-71
2023/07/05 00:04:54;;;;;;;6.10;5.55;;;22.00;99.90;;;;;;5290577;27;20019;-72
2023/07/05 00:07:25;;;;;;;6.93;6.22;;;22.10;99.90;;;;;;5290503;28;20485;-72
2023/07/05 00:09:56;;;;;;;6.22;5.72;;;21.90;99.90;;;;;;5290448;28;20540;-71
2023/07/05 00:12:26;;;;;;;7.03;6.43;;;21.90;99.90;;;;;;5290250;28;20024;-72
2023/07/05 00:14:57;;;;;;;7.30;6.60;;;22.00;99.90;;;;;;5290236;28;20019;-71
2023/07/05 00:17:32;;;;;;;6.60;5.40;;;22.00;99.90;;;;;;5289266;28;20716;-72
2023/07/05 00:20:05;;;;;;;8.07;5.57;;;22.00;99.90;;;;;;5290117;28;20019;-71
2023/07/05 00:22:36;;;;;;;6.60;6.00;;;22.10;99.90;;;;;;5290133;28;20027;-72
2023/07/05 00:25:07;;;;;;;7.78;5.85;;;22.00;99.90;;;;;;5290161;28;20477;-71
2023/07/05 00:27:38;;;;;;;6.22;5.63;;;21.90;99.90;;;;;;5289648;28;20050;-72
2023/07/05 00:30:09;;;;;;;6.50;5.93;;;21.90;99.90;;;;;;5289930;28;20417;-72
2023/07/05 00:32:40;;;;;;;7.18;6.47;;;21.80;99.90;;;;;;5289859;28;20020;-72
2023/07/05 00:35:11;;;;;;;6.80;6.30;;;21.90;99.90;;;;;;5289886;28;20160;-71
2023/07/05 00:37:42;;;;;;;8.00;7.20;;;21.80;99.90;;;;;;5289743;28;20039;-71
2023/07/05 00:40:13;;;;;;;9.15;8.25;;;22.00;99.90;;;;;;5289657;28;20028;-71
2023/07/05 00:42:44;;;;;;;9.02;8.23;;;21.90;99.90;;;;;;5289652;28;20456;-72
2023/07/05 00:45:15;;;;;;;8.73;8.05;;;21.90;99.90;;;;;;5289492;28;20080;-72
2023/07/05 00:47:46;;;;;;;10.13;7.70;;;22.00;99.90;;;;;;5289454;28;20044;-72
2023/07/05 00:50:22;;;;;;;9.50;8.70;;;22.00;99.90;;;;;;5289466;28;20536;-72
2023/07/05 00:52:54;;;;;;;9.00;8.30;;;22.00;99.90;;;;;;5289577;27;20451;-72
2023/07/05 00:55:27;;;;;;;8.55;7.80;;;22.00;99.90;;;;;;5289359;28;20036;-72
2023/07/05 00:57:58;;;;;;;8.13;7.53;;;22.10;99.90;;;;;;5289126;28;20046;-72
2023/07/05 01:00:30;;;;;;;7.97;7.45;;;22.00;99.90;;;;;;5289394;28;20031;-72
2023/07/05 01:03:08;;;;;;;9.43;8.63;;;22.10;99.90;;;;;;5289331;28;20400;-72
2023/07/05 01:05:39;;;;;;;9.77;9.07;;;22.10;99.90;;;;;;5289203;28;20031;-72
2023/07/05 01:08:10;;;;;;;9.75;8.73;;;22.00;99.90;;;;;;5289259;28;20031;-72
2023/07/05 01:11:00;;;;;;;9.23;8.43;;;22.10;99.90;;;;;;5289369;28;20060;-71
2023/07/05 01:13:39;;;;;;;9.07;8.45;;;22.10;99.90;;;;;;5289250;28;20035;-71
2023/07/05 01:16:22;;;;;;;8.98;8.18;;;22.10;99.90;;;;;;5289392;28;20020;-72
2023/07/05 01:19:23;;;;;;;7.65;7.05;;;22.10;99.90;;;;;;5289522;28;20543;-72
2023/07/05 01:22:01;;;;;;;8.30;7.63;;;22.20;99.90;;;;;;5289357;28;20420;-72
2023/07/05 01:25:00;;;;;;;8.57;7.77;;;22.10;99.90;;;;;;5287913;28;20031;-72
2023/07/05 01:27:48;;;;;;;8.43;7.72;;;22.20;99.90;;;;;;5288852;28;20048;-72
2023/07/05 01:30:28;;;;;;;10.82;7.07;;;22.20;99.90;;;;;;5288804;28;20053;-71
2023/07/05 01:33:07;;;;;;;9.05;8.10;;;22.30;99.90;;;;;;5289214;28;20031;-71
2023/07/05 01:35:54;;;;;;;9.05;8.20;;;22.20;99.90;;;;;;5289059;28;20467;-72
2023/07/05 01:38:25;;;;;;;8.13;7.32;;;22.20;99.90;;;;;;5288822;28;20138;-72
2023/07/05 01:41:00;;;;;;;9.95;7.93;;;22.20;99.90;;;;;;5288944;28;20428;-72
2023/07/05 01:43:34;;;;;;;8.10;7.30;;;22.10;99.90;;;;;;5288884;28;20016;-72
2023/07/05 01:46:14;;;;;;;7.90;6.88;;;22.20;99.90;;;;;;5288754;28;20027;-72
2023/07/05 01:49:22;;;;;;;9.32;7.68;;;22.20;99.90;;;;;;5288696;28;20059;-72
2023/07/05 01:51:59;;;;;;;9.25;7.35;;;22.20;99.90;;;;;;5288685;28;20050;-71
2023/07/05 01:54:46;;;;;;;8.30;6.78;;;22.20;99.90;;;;;;5288972;28;20023;-72
2023/07/05 01:57:24;;;;;;;6.45;5.85;;;22.20;99.90;;;;;;5288603;28;20042;-72
2023/07/05 02:00:02;;;;;;;7.45;6.80;;;22.20;99.90;;;;;;5288608;28;20085;-72
2023/07/05 02:02:38;;;;;;;6.80;6.25;;;22.20;99.90;;;;;;5288728;28;20041;-72
2023/07/05 02:05:10;;;;;;;6.85;6.25;;;22.10;99.90;;;;;;5288640;28;20023;-72
2023/07/05 02:07:44;;;;;;;7.90;7.20;;;22.10;99.90;;;;;;5288570;28;20419;-72
2023/07/05 02:10:15;;;;;;;6.88;6.20;;;22.10;99.90;;;;;;5288538;28;20023;-72
2023/07/05 02:12:46;;;;;;;10.30;7.20;;;22.10;99.90;;;;;;5288605;28;20057;-72
2023/07/05 02:15:17;;;;;;;9.65;7.63;;;22.00;99.90;;;;;;5288568;28;20104;-71
2023/07/05 02:17:48;;;;;;;8.55;7.82;;;22.10;99.90;;;;;;5288431;28;20122;-72
2023/07/05 02:20:19;;;;;;;8.55;7.70;;;22.00;99.90;;;;;;5288523;28;20030;-71
2023/07/05 02:22:49;;;;;;;6.88;6.03;;;22.10;99.90;;;;;;5288626;28;20483;-71
2023/07/05 02:25:20;;;;;;;7.18;6.65;;;22.00;99.90;;;;;;5288611;28;20079;-72
2023/07/05 02:27:51;;;;;;;7.20;6.47;;;22.00;99.90;;;;;;5288288;28;20112;-72
2023/07/05 02:30:24;;;;;;;8.70;7.85;;;22.10;99.90;;;;;;5288609;28;20024;-71
2023/07/05 02:32:54;;;;;;;8.30;7.50;;;22.00;99.90;;;;;;5288441;28;20038;-72
2023/07/05 02:35:25;;;;;;;8.55;7.72;;;22.10;99.90;;;;;;5288467;28;20024;-72
2023/07/05 02:37:56;;;;;;;7.93;7.22;;;22.10;99.90;;;;;;5288769;28;20023;-71
2023/07/05 02:40:27;;;;;;;7.60;6.90;;;22.00;99.90;;;;;;5288352;28;20112;-72
2023/07/05 02:42:59;;;;;;;7.65;6.88;;;22.10;99.90;;;;;;5292113;28;20597;-71
2023/07/05 02:45:32;;;;;;;7.22;6.63;;;22.00;99.90;;;;;;5292078;28;20023;-71
2023/07/05 02:48:03;;;;;;;7.32;6.78;;;22.00;99.90;;;;;;5292111;28;20019;-72
2023/07/05 02:50:38;;;;;;;6.88;6.30;;;21.90;99.90;;;;;;5292106;28;20012;-72
2023/07/05 02:53:09;;;;;;;7.97;7.30;;;21.80;99.90;;;;;;5292042;28;20098;-72
2023/07/05 02:55:41;;;;;;;9.07;8.27;;;21.90;99.90;;;;;;5291899;28;20106;-72
2023/07/05 02:58:11;;;;;;;8.27;7.65;;;21.90;99.90;;;;;;5291732;28;20542;-72
2023/07/05 03:00:43;;;;;;;8.02;7.38;;;21.90;99.90;;;;;;5291730;28;20118;-71
2023/07/05 03:03:14;;;;;;;7.45;6.85;;;21.90;99.90;;;;;;5291743;28;20034;-72
2023/07/05 03:05:56;;;;;;;6.50;6.00;;;21.90;99.90;;;;;;5291688;28;20024;-72
2023/07/05 03:08:28;;;;;;;7.15;6.65;;;21.90;99.90;;;;;;5291764;28;20145;-72
2023/07/05 03:11:00;;;;;;;7.07;5.95;;;22.00;99.90;;;;;;5291503;28;20032;-71
2023/07/05 03:13:32;;;;;;;7.75;6.32;;;22.00;99.90;;;;;;5291551;28;20051;-72
2023/07/05 03:16:05;;;;;;;7.60;7.00;;;22.00;99.90;;;;;;5291390;28;20023;-72
2023/07/05 03:18:35;;;;;;;7.68;6.97;;;22.10;99.90;;;;;;5291181;28;20123;-72
2023/07/05 03:21:06;;;;;;;8.40;7.63;;;22.10;99.90;;;;;;5291390;28;20160;-72
2023/07/05 03:23:37;;;;;;;7.70;6.57;;;22.20;99.90;;;;;;5291362;28;20375;-71
2023/07/05 03:26:10;;;;;;;9.88;6.65;;;22.20;99.90;;;;;;5290911;28;20032;-71
2023/07/05 03:28:41;;;;;;;7.20;6.63;;;22.30;99.90;;;;;;5291210;28;20043;-72
2023/07/05 03:31:14;;;;;;;8.65;7.90;;;22.40;99.90;;;;;;5290997;28;20024;-71
2023/07/05 03:33:45;;;;;;;7.60;6.85;;;22.40;99.90;;;;;;5290895;28;20475;-72
2023/07/05 03:36:19;;;;;;;7.38;6.63;;;22.50;99.90;;;;;;5290896;28;20072;-72
2023/07/05 03:38:53;;;;;;;7.70;6.90;;;22.60;99.90;;;;;;5290839;28;20031;-71
2023/07/05 03:41:24;;;;;;;7.30;6.70;;;22.70;99.90;;;;;;5290978;28;20375;-72
2023/07/05 03:44:02;;;;;;;8.23;6.70;;;22.80;99.90;;;;;;5290968;28;20031;-72
2023/07/05 03:46:33;;;;;;;7.13;6.43;;;22.80;99.90;;;;;;5290876;28;20490;-71
2023/07/05 03:49:04;;;;;;;7.72;6.78;;;22.90;99.90;;;;;;5289910;28;20016;-71
2023/07/05 03:51:35;;;;;;;7.10;6.47;;;22.90;99.90;;;;;;5291052;28;20402;-72
2023/07/05 03:54:06;;;;;;;8.68;6.40;;;22.90;99.90;;;;;;5290927;28;20459;-72
2023/07/05 03:56:37;;;;;;;6.90;6.20;;;23.00;99.90;;;;;;5290634;28;20110;-72
2023/07/05 03:59:09;;;;;;;7.00;6.30;;;23.10;99.90;;;;;;5290534;28;20475;-72
2023/07/05 04:01:40;;;;;;;7.68;6.88;;;23.20;99.90;;;;;;5290625;28;20036;-71
2023/07/05 04:04:11;;;;;;;7.03;6.40;;;23.30;99.90;;;;;;5290470;28;20502;-71
2023/07/05 04:06:42;;;;;;;7.43;6.72;;;23.40;99.90;;;;;;5290469;28;20028;-72
2023/07/05 04:09:13;;;;;;;7.20;6.70;;;23.50;99.90;;;;;;5290504;28;20058;-72
2023/07/05 04:11:44;;;;;;;7.22;6.57;;;23.60;99.90;;;;;;5290426;28;20023;-72
2023/07/05 04:14:15;;;;;;;6.82;6.13;;;23.60;99.90;;;;;;5290446;28;20027;-72
2023/07/05 04:16:46;;;;;;;6.68;6.07;;;23.70;99.90;;;;;;5290178;28;20061;-72
2023/07/05 04:19:17;;;;;;;8.70;7.88;;;23.70;99.90;;;;;;5290019;28;20035;-72
2023/07/05 04:21:47;;;;;;;10.82;7.70;;;23.80;99.90;;;;;;5290147;28;20019;-71
2023/07/05 04:55:03;;;;;;;10.80;9.95;;;23.90;99.90;;;;;;5307403;27;21050;-70
2023/07/05 04:57:34;;;;;;;8.77;7.97;;;24.50;99.90;;;;;;5307545;28;20072;-70
2023/07/05 05:00:05;;;;;;;7.95;7.25;;;24.60;99.90;;;;;;5307418;27;20115;-70
2023/07/05 05:02:37;;;;;;;9.00;8.23;;;24.70;99.90;;;;;;5307493;28;20031;-70
2023/07/05 05:05:08;;;;;;;8.65;7.85;;;24.70;99.90;;;;;;5307446;27;20023;-70
2023/07/05 05:07:39;;;;;;;9.38;8.48;;;24.80;99.90;;;;;;5307215;27;20053;-70
2023/07/05 05:10:10;;;;;;;9.15;8.45;;;25.00;99.90;;;;;;5307226;27;20063;-70
2023/07/05 05:12:41;;;;;;;7.22;6.72;;;25.10;99.90;;;;;;5307088;28;20019;-70
2023/07/05 05:15:12;;;;;;;7.30;6.60;;;25.00;99.90;;;;;;5306930;27;20025;-70
2023/07/05 05:17:42;;;;;;;7.18;6.50;;;25.00;99.90;;;;;;5307092;28;20027;-71
2023/07/05 05:20:13;;;;;;;7.75;7.05;;;24.80;99.90;;;;;;5306983;27;20029;-70
2023/07/05 05:22:44;;;;;;;9.32;7.20;;;24.90;99.90;;;;;;5306839;27;20027;-70
2023/07/05 05:25:15;;;;;;;9.23;8.43;;;24.90;99.90;;;;;;5306747;27;20110;-70
2023/07/05 05:27:46;;;;;;;8.35;7.65;;;25.00;99.90;;;;;;5306855;27;20023;-71
2023/07/05 05:30:17;;;;;;;10.10;8.48;;;25.00;99.90;;;;;;5306727;27;20191;-70
2023/07/05 05:32:48;;;;;;;8.75;7.95;;;25.20;99.90;;;;;;5306844;27;20032;-70
2023/07/05 05:35:19;;;;;;;9.48;8.77;;;25.20;99.90;;;;;;5306510;28;20383;-70
2023/07/05 05:37:50;;;;;;;9.68;8.68;;;25.30;99.90;;;;;;5306660;27;20373;-70
2023/07/05 05:40:21;;;;;;;8.10;7.53;;;25.30;99.90;;;;;;5306499;28;20023;-70
2023/07/05 05:42:52;;;;;;;7.65;6.90;;;25.10;99.90;;;;;;5306368;27;20470;-70
2023/07/05 05:45:23;;;;;;;8.07;7.28;;;25.10;99.90;;;;;;5306258;27;20026;-70
2023/07/05 05:47:55;;;;;;;7.45;6.78;;;25.30;99.90;;;;;;5306327;27;20027;-70
2023/07/05 05:50:26;;;;;;;8.32;7.53;;;25.30;99.90;;;;;;5306344;28;20035;-70
2023/07/05 05:52:56;;;;;;;7.53;6.55;;;25.30;99.90;;;;;;5305874;27;20096;-70
2023/07/05 05:55:28;;;;;;;7.65;6.95;;;25.20;99.90;;;;;;5294634;28;20164;-70
2023/07/05 05:57:58;;;;;;;7.18;6.47;;;25.20;99.90;;;;;;5292038;28;20026;-71
2023/07/05 06:00:29;;;;;;;7.20;6.50;;;25.30;99.90;;;;;;5292240;28;20024;-70
2023/07/05 06:03:01;;;;;;;8.48;7.32;;;25.30;99.90;;;;;;5291879;28;20031;-70
2023/07/05 06:05:33;;;;;;;8.20;7.60;;;25.80;99.90;;;;;;5291713;28;20027;-71
2023/07/05 06:08:04;;;;;;;10.30;9.40;;;25.90;99.90;;;;;;5291931;28;20379;-70
2023/07/05 06:10:35;;;;;;;11.55;10.65;;;25.80;99.90;;;;;;5291801;28;20015;-70
2023/07/05 06:13:06;;;;;;;11.77;10.80;;;26.00;99.90;;;;;;5291664;28;20485;-71
2023/07/05 06:15:37;;;;;;;11.55;10.75;;;26.10;99.90;;;;;;5291632;28;20115;-70
2023/07/05 06:18:07;;;;;;;10.35;9.55;;;26.20;99.90;;;;;;5291962;28;20055;-70
2023/07/05 06:20:38;;;;;;;10.10;9.23;;;25.90;99.90;;;;;;5291858;28;20558;-71
2023/07/05 06:23:09;;;;;;;8.88;7.80;;;25.90;99.90;;;;;;5291357;28;20039;-70
2023/07/05 06:25:40;;;;;;;9.00;8.25;;;25.90;99.90;;;;;;5291480;28;20100;-70
2023/07/05 06:28:10;;;;;;;10.48;9.75;;;26.00;99.90;;;;;;5291528;28;20038;-70
2023/07/05 06:30:42;;;;;;;8.18;7.55;;;25.90;99.90;;;;;;5291397;28;20177;-70
2023/07/05 06:33:14;;;;;;;8.85;8.07;;;26.00;99.90;;;;;;5291343;28;20410;-70
2023/07/05 06:35:49;;;;;;;8.35;7.75;;;26.00;99.90;;;;;;5291371;28;20028;-71
2023/07/05 06:38:20;;;;;;;7.57;6.90;;;26.00;99.90;;;;;;5291294;28;20067;-70
2023/07/05 06:40:52;;;;;;;8.23;7.53;;;26.00;99.90;;;;;;5291382;28;20051;-70
2023/07/05 06:43:23;;;;;;;7.57;6.97;;;25.90;99.90;;;;;;5291078;28;20088;-70
2023/07/05 06:45:56;;;;;;;7.75;7.03;;;26.00;99.90;;;;;;5291111;28;20024;-70
2023/07/05 06:48:26;;;;;;;7.80;7.03;;;26.50;99.90;;;;;;5291021;28;20024;-70
2023/07/05 06:50:59;;;;;;;8.32;7.68;;;26.70;99.90;;;;;;5290943;28;20554;-70
2023/07/05 06:53:30;;;;;;;6.00;5.50;;;26.90;99.90;;;;;;5290629;28;20521;-70
2023/07/05 06:56:00;;;;;;;7.78;7.18;;;26.90;99.90;;;;;;5290999;28;20020;-70
2023/07/05 06:58:31;;;;;;;8.20;7.50;;;26.80;99.90;;;;;;5290746;28;20366;-70
2023/07/05 07:01:03;;;;;;;7.35;6.65;;;26.80;99.90;;;;;;5290757;28;20470;-70
2023/07/05 07:03:34;;;;;;;6.38;5.78;;;26.50;99.90;;;;;;5290612;28;20032;-70
2023/07/05 07:06:05;;;;;;;6.90;6.30;;;26.80;99.90;;;;;;5289479;28;20497;-70
2023/07/05 07:08:38;;;;;;;7.03;6.35;;;26.90;99.90;;;;;;5290578;28;20016;-70
2023/07/05 07:11:11;;;;;;;7.68;7.05;;;27.00;99.90;;;;;;5290557;28;20468;-70
2023/07/05 07:13:42;;;;;;;11.23;10.43;;;27.00;99.90;;;;;;5290446;28;20486;-70
2023/07/05 07:16:15;;;;;;;14.57;13.65;;;27.00;99.90;;;;;;5290509;28;20072;-70
2023/07/05 07:18:48;;;;;;;15.50;14.57;;;26.80;99.90;;;;;;5290432;28;20022;-70
2023/07/05 07:21:19;;;;;;;14.95;13.98;;;26.80;99.90;;;;;;5290244;28;20486;-70
2023/07/05 07:23:51;;;;;;;15.45;14.35;;;26.80;99.90;;;;;;5290098;28;20047;-71
2023/07/05 07:26:24;;;;;;;14.88;13.88;;;26.70;99.90;;;;;;5290272;28;20088;-70
2023/07/05 07:28:56;;;;;;;14.32;13.18;;;26.70;99.90;;;;;;5290050;28;20088;-70
2023/07/05 07:31:30;;;;;;;16.45;15.45;;;26.60;99.90;;;;;;5290212;28;20031;-70
2023/07/05 07:34:02;;;;;;;14.32;13.43;;;26.70;99.90;;;;;;5290001;28;20033;-71
2023/07/05 07:36:34;;;;;;;12.82;11.60;;;27.00;99.90;;;;;;5290197;28;20020;-70
2023/07/05 07:39:05;;;;;;;14.30;13.15;;;27.00;99.90;;;;;;5289915;28;20020;-70
2023/07/05 07:41:37;;;;;;;13.82;12.85;;;27.10;99.90;;;;;;5289971;28;20034;-70
2023/07/05 07:44:10;;;;;;;14.63;13.68;;;27.20;99.90;;;;;;5289758;28;20038;-71
2023/07/05 07:46:41;;;;;;;14.18;12.88;;;27.20;99.90;;;;;;5290167;28;20092;-70
2023/07/05 07:49:12;;;;;;;13.32;12.25;;;27.30;99.90;;;;;;5290107;28;20092;-70
2023/07/05 07:51:45;;;;;;;13.43;12.57;;;27.70;99.90;;;;;;5289908;28;20027;-71
2023/07/05 07:54:18;;;;;;;10.90;9.07;;;27.90;99.90;;;;;;5289442;28;20059;-71
2023/07/05 07:56:49;;;;;;;9.07;8.38;;;27.90;99.90;;;;;;5271425;28;20028;-70
2023/07/05 07:59:20;;;;;;;7.43;6.80;;;28.10;99.90;;;;;;5289777;28;20061;-70
2023/07/05 08:01:51;;;;;;;11.45;10.57;;;28.10;99.90;;;;;;5289607;28;20016;-70
2023/07/05 08:04:22;;;;;;;13.35;12.57;;;28.00;99.90;;;;;;5289453;28;20046;-70
2023/07/05 08:06:52;;;;;;;17.80;16.23;;;28.20;99.90;;;;;;5289583;28;20030;-70
2023/07/05 08:09:28;;;;;;;19.85;18.45;;;28.30;99.90;;;;;;5289477;28;20034;-70
2023/07/05 08:11:59;;;;;;;19.40;18.27;;;28.20;99.90;;;;;;5289432;28;20019;-71
2023/07/05 08:14:30;;;;;;;20.63;19.33;;;28.30;99.90;;;;;;5289372;28;20474;-70
2023/07/05 08:17:01;;;;;;;19.98;18.55;;;27.90;99.90;;;;;;5289220;28;20031;-70
2023/07/05 08:19:31;;;;;;;15.80;14.63;;;28.00;99.90;;;;;;5289471;28;20109;-71
2023/07/05 08:22:02;;;;;;;18.73;17.35;;;28.10;99.90;;;;;;5289118;28;20027;-70
2023/07/05 08:24:33;;;;;;;17.73;16.38;;;28.20;99.90;;;;;;5289144;28;20136;-70
2023/07/05 08:27:05;;;;;;;17.42;16.13;;;28.10;99.90;;;;;;5289161;28;20024;-70
2023/07/05 08:29:36;;;;;;;16.38;15.10;;;28.20;99.90;;;;;;5289132;28;20039;-70
2023/07/05 08:32:07;;;;;;;17.00;15.95;;;28.40;99.90;;;;;;5289254;28;20102;-71
2023/07/05 08:34:38;;;;;;;12.18;11.10;;;28.40;99.90;;;;;;5289102;28;20031;-70
2023/07/05 08:37:08;;;;;;;9.68;8.93;;;28.70;99.90;;;;;;5289127;28;20480;-70
2023/07/05 08:39:39;;;;;;;8.50;7.90;;;28.80;99.90;;;;;;5289138;28;20463;-71
2023/07/05 08:42:13;;;;;;;8.48;7.68;;;29.00;99.90;;;;;;5288925;28;20024;-71
2023/07/05 08:44:51;;;;;;;8.77;8.13;;;28.60;99.90;;;;;;5288956;28;20031;-71
2023/07/05 08:47:42;;;;;;;8.47;6.63;;;29.00;99.90;;;;;;5289272;28;20035;-71
2023/07/05 08:50:29;;;;;;;6.57;5.95;;;28.90;99.90;;;;;;5289192;28;20023;-70
2023/07/05 08:53:10;;;;;;;7.57;7.00;;;28.40;99.90;;;;;;5288733;28;20398;-70
2023/07/05 08:55:53;;;;;;;6.50;5.90;;;28.30;99.90;;;;;;5270697;28;20032;-71
2023/07/05 08:58:28;;;;;;;6.43;5.82;;;28.10;99.90;;;;;;5288952;28;20031;-70
2023/07/05 09:01:04;;;;;;;6.28;5.68;;;28.30;99.90;;;;;;5289361;28;20031;-71
2023/07/05 09:03:35;;;;;;;5.30;4.70;;;28.20;99.90;;;;;;5289186;28;20034;-70
2023/07/05 09:06:31;;;;;;;5.53;4.68;;;28.50;99.90;;;;;;5288837;28;20091;-71
2023/07/05 09:09:22;;;;;;;5.03;4.55;;;28.70;99.90;;;;;;5288823;28;20030;-71
2023/07/05 09:12:12;;;;;;;5.65;4.38;;;28.70;99.90;;;;;;5289000;28;20332;-70
2023/07/05 09:15:04;;;;;;;5.97;4.85;;;28.50;99.90;;;;;;5288784;28;20105;-70
2023/07/05 09:17:58;;;;;;;5.20;4.13;;;28.50;99.90;;;;;;5288854;28;20028;-70
2023/07/05 09:20:41;;;;;;;4.80;4.40;;;28.70;99.90;;;;;;5288772;28;20038;-70
2023/07/05 09:23:19;;;;;;;5.75;4.32;;;28.80;99.90;;;;;;5288522;28;20053;-70
2023/07/05 09:25:56;;;;;;;5.22;4.03;;;28.60;99.90;;;;;;5288600;28;20049;-70
2023/07/05 09:28:37;;;;;;;5.00;4.50;;;29.00;99.90;;;;;;5288821;28;20057;-70
2023/07/05 09:31:11;;;;;;;4.47;4.07;;;29.30;99.90;;;;;;5292050;28;20076;-71
2023/07/05 09:33:49;;;;;;;4.95;4.55;;;29.30;99.90;;;;;;5292655;28;20031;-71
2023/07/05 09:36:22;;;;;;;5.22;4.05;;;29.30;99.90;;;;;;5292534;28;20046;-70
2023/07/05 09:39:07;;;;;;;5.35;3.72;;;29.30;99.90;;;;;;5292487;28;20027;-71
2023/07/05 09:41:44;;;;;;;4.07;3.78;;;29.30;99.90;;;;;;5292429;28;20058;-71
2023/07/05 09:44:18;;;;;;;4.40;4.00;;;29.20;99.90;;;;;;5292155;28;20035;-71
2023/07/05 09:46:50;;;;;;;4.55;4.18;;;29.00;99.90;;;;;;5292128;28;20028;-71
2023/07/05 09:49:21;;;;;;;5.05;4.13;;;29.30;99.90;;;;;;5292249;28;20068;-70
2023/07/05 09:51:53;;;;;;;5.43;4.93;;;29.40;99.90;;;;;;5292212;28;20447;-70
2023/07/05 09:54:29;;;;;;;6.10;4.80;;;29.30;99.90;;;;;;5291838;28;20048;-71
2023/07/05 09:57:07;;;;;;;5.57;5.00;;;29.60;99.90;;;;;;5292080;28;20024;-71
2023/07/05 09:59:38;;;;;;;5.05;4.60;;;29.50;99.90;;;;;;5292000;28;20019;-71
2023/07/05 10:02:14;;;;;;;5.97;5.47;;;29.30;99.90;;;;;;5292003;28;20027;-70
2023/07/05 10:04:51;;;;;;;15.18;6.65;;;29.20;99.90;;;;;;5291867;28;20035;-71
2023/07/05 10:07:32;;;;;;;7.50;6.88;;;29.10;99.90;;;;;;5291905;28;20076;-70
2023/07/05 10:10:09;;;;;;;7.80;7.10;;;29.10;99.90;;;;;;5291844;28;20026;-71
2023/07/05 10:12:43;;;;;;;7.43;6.93;;;29.30;99.90;;;;;;5291770;28;20038;-70
2023/07/05 10:15:23;;;;;;;7.47;6.85;;;29.40;99.90;;;;;;5291491;28;20062;-71
2023/07/05 10:17:55;;;;;;;5.93;5.43;;;29.50;99.90;;;;;;5291546;28;20034;-70
2023/07/05 10:20:37;;;;;;;6.30;5.80;;;29.60;99.90;;;;;;5291632;28;20024;-71
2023/07/05 10:23:18;;;;;;;7.15;6.65;;;29.40;99.90;;;;;;5273253;28;20379;-71
2023/07/05 10:25:52;;;;;;;7.43;6.43;;;29.50;99.90;;;;;;5291606;28;20024;-71
2023/07/05 10:28:29;;;;;;;6.35;5.78;;;29.80;99.90;;;;;;5291659;28;20122;-70
2023/07/05 10:31:05;;;;;;;5.40;5.03;;;29.90;99.90;;;;;;5291797;28;20065;-70
2023/07/05 10:33:40;;;;;;;5.82;5.32;;;29.80;99.90;;;;;;5291621;28;20131;-70
2023/07/05 10:36:15;;;;;;;6.95;5.97;;;29.80;99.90;;;;;;5291405;28;20455;-71
2023/07/05 10:38:48;;;;;;;8.07;6.43;;;29.60;99.90;;;;;;5291268;28;20028;-71
2023/07/05 10:41:19;;;;;;;7.15;6.55;;;29.60;99.90;;;;;;5291139;28;20022;-70
2023/07/05 10:44:13;;;;;;;6.53;5.97;;;29.90;99.90;;;;;;5291016;28;20402;-70
2023/07/05 10:46:46;;;;;;;8.02;6.10;;;30.00;99.90;;;;;;5291095;28;20031;-70
2023/07/05 10:49:19;;;;;;;6.30;5.80;;;29.90;99.90;;;;;;5290953;28;20030;-71
2023/07/05 10:52:11;;;;;;;7.13;6.63;;;29.90;99.90;;;;;;5290922;28;20035;-71
2023/07/05 10:55:21;;;;;;;5.90;5.38;;;30.00;99.90;;;;;;5290095;28;20055;-71
2023/07/05 10:58:08;;;;;;;6.30;5.80;;;30.00;99.90;;;;;;5290874;28;20062;-71
2023/07/05 11:00:45;;;;;;;5.93;5.43;;;29.90;99.90;;;;;;5290751;28;20015;-70
2023/07/05 11:03:31;;;;;;;5.85;5.32;;;29.90;99.90;;;;;;5290659;28;20041;-71
2023/07/05 11:06:03;;;;;;;5.50;5.03;;;30.00;99.90;;;;;;5290712;28;20107;-70
2023/07/05 11:08:38;;;;;;;4.75;4.18;;;30.00;99.90;;;;;;5290601;28;20102;-71
2023/07/05 11:11:23;;;;;;;5.25;4.75;;;29.90;99.90;;;;;;5290540;28;20020;-71
2023/07/05 11:13:55;;;;;;;4.80;4.38;;;30.00;99.90;;;;;;5290440;28;20057;-70
2023/07/05 11:16:29;;;;;;;5.20;4.10;;;29.80;99.90;;;;;;5290664;28;20019;-70
2023/07/05 11:19:06;;;;;;;4.82;3.90;;;29.90;99.90;;;;;;5290369;28;20388;-70
2023/07/05 11:21:46;;;;;;;5.10;4.70;;;29.60;99.90;;;;;;5290306;28;20098;-71
2023/07/05 11:24:38;;;;;;;5.20;3.95;;;29.70;99.90;;;;;;5290087;28;20047;-70
2023/07/05 11:27:24;;;;;;;6.32;4.18;;;29.40;99.90;;;;;;5290332;28;20027;-70
2023/07/05 11:29:56;;;;;;;5.80;4.40;;;29.50;99.90;;;;;;5290398;28;20030;-71
2023/07/05 11:33:02;;;;;;;5.30;4.10;;;29.80;99.90;;;;;;5290424;28;20023;-70
2023/07/05 11:35:51;;;;;;;4.78;4.25;;;29.80;99.90;;;;;;5290265;28;20379;-71
2023/07/05 11:38:37;;;;;;;5.18;4.07;;;29.60;99.90;;;;;;5290127;28;20039;-70
2023/07/05 11:41:10;;;;;;;6.00;4.97;;;29.80;99.90;;;;;;5290130;28;20034;-70
2023/07/05 11:43:44;;;;;;;6.07;4.60;;;29.70;99.90;;;;;;5289748;28;20039;-71
2023/07/05 11:46:37;;;;;;;4.80;4.40;;;29.70;99.90;;;;;;5289737;28;20085;-71
2023/07/05 11:49:20;;;;;;;4.88;4.20;;;29.70;99.90;;;;;;5289823;28;20039;-71
2023/07/05 11:52:00;;;;;;;5.78;4.90;;;29.70;99.90;;;;;;5289536;28;20028;-71
2023/07/05 11:54:42;;;;;;;5.80;4.97;;;29.80;99.90;;;;;;5289599;28;20048;-71
2023/07/05 11:57:14;;;;;;;5.13;4.43;;;30.00;99.90;;;;;;5289774;28;20039;-70
2023/07/05 11:59:55;;;;;;;7.30;4.35;;;29.50;99.90;;;;;;5289633;28;20020;-71
2023/07/05 12:02:45;;;;;;;5.07;4.63;;;29.80;99.90;;;;;;5289463;28;20031;-70
2023/07/05 12:05:19;;;;;;;5.22;4.72;;;29.70;99.90;;;;;;5289365;28;20023;-70
2023/07/05 12:08:06;;;;;;;5.00;4.60;;;29.90;99.90;;;;;;5289447;28;20383;-70
2023/07/05 12:10:37;;;;;;;6.88;4.65;;;29.80;99.90;;;;;;5289488;28;20110;-71
2023/07/05 12:13:19;;;;;;;4.63;4.22;;;29.90;99.90;;;;;;5289350;28;20027;-71
2023/07/05 12:15:52;;;;;;;4.90;4.50;;;29.80;99.90;;;;;;5289331;28;20169;-71
2023/07/05 12:18:24;;;;;;;5.13;4.72;;;29.90;99.90;;;;;;5289272;28;20034;-71
2023/07/05 12:20:58;;;;;;;5.30;4.80;;;29.50;99.90;;;;;;5289287;28;20030;-70
2023/07/05 12:23:29;;;;;;;6.18;5.20;;;29.60;99.90;;;;;;5289006;28;20051;-70
2023/07/05 12:26:04;;;;;;;5.50;5.00;;;29.30;99.90;;;;;;5289327;28;20053;-71
2023/07/05 12:28:42;;;;;;;9.50;4.70;;;29.70;99.90;;;;;;5289142;28;20031;-71
2023/07/05 12:31:18;;;;;;;5.55;5.05;;;29.30;99.90;;;;;;5289228;28;20023;-71
2023/07/05 12:33:54;;;;;;;7.40;5.03;;;29.60;99.90;;;;;;5289124;28;20035;-71
2023/07/05 12:36:26;;;;;;;5.57;4.20;;;29.40;99.90;;;;;;5289102;28;20030;-70
2023/07/05 12:39:09;;;;;;;6.07;5.57;;;29.40;99.90;;;;;;5288998;28;20031;-71
2023/07/05 12:41:40;;;;;;;5.88;5.40;;;29.50;99.90;;;;;;5289084;28;20034;-70
2023/07/05 12:44:16;;;;;;;6.28;5.85;;;29.60;99.90;;;;;;5288720;28;20034;-70
2023/07/05 12:46:47;;;;;;;7.88;5.75;;;29.70;99.90;;;;;;5289138;28;20028;-70
2023/07/05 12:49:30;;;;;;;6.50;5.45;;;29.60;99.90;;;;;;5289067;28;20023;-71
2023/07/05 12:52:01;;;;;;;6.30;5.78;;;29.40;99.90;;;;;;5289046;28;20022;-70
2023/07/05 12:54:32;;;;;;;6.03;5.45;;;29.50;99.90;;;;;;5288850;28;20126;-71
2023/07/05 12:57:03;;;;;;;6.10;5.55;;;29.60;99.90;;;;;;5289027;28;20467;-70
2023/07/05 12:59:38;;;;;;;5.80;5.30;;;29.40;99.90;;;;;;5288922;28;20031;-71
2023/07/05 13:02:14;;;;;;;5.85;4.85;;;29.30;99.90;;;;;;5288963;28;20020;-71
2023/07/05 13:04:45;;;;;;;5.45;4.95;;;29.50;99.90;;;;;;5289909;28;20028;-70
2023/07/05 13:07:21;;;;;;;5.60;5.10;;;29.70;99.90;;;;;;5293151;28;20020;-70
2023/07/05 13:09:58;;;;;;;6.97;6.38;;;29.50;99.90;;;;;;5293133;28;20028;-70
2023/07/05 13:12:53;;;;;;;6.43;5.82;;;29.30;99.90;;;;;;5293004;28;20110;-71
2023/07/05 13:15:35;;;;;;;5.80;5.20;;;29.00;99.90;;;;;;5292942;28;20096;-71
2023/07/05 13:18:30;;;;;;;7.25;4.82;;;29.10;99.90;;;;;;5292850;28;20039;-71
2023/07/05 13:21:14;;;;;;;5.55;5.03;;;29.10;99.90;;;;;;5292760;28;20360;-70
2023/07/05 13:23:46;;;;;;;4.80;4.40;;;28.90;99.90;;;;;;5292473;28;20039;-70
2023/07/05 13:26:32;;;;;;;5.57;5.07;;;28.70;99.90;;;;;;5292664;28;20106;-70
2023/07/05 13:29:20;;;;;;;7.85;5.68;;;28.90;99.90;;;;;;5292611;28;20059;-70
2023/07/05 13:31:53;;;;;;;7.93;6.15;;;29.00;99.90;;;;;;5292693;28;20044;-70
2023/07/05 13:34:25;;;;;;;6.70;5.25;;;28.70;99.90;;;;;;5292439;28;20535;-71
2023/07/05 13:37:00;;;;;;;8.25;6.07;;;29.00;99.90;;;;;;5292542;28;20371;-71
2023/07/05 13:39:32;;;;;;;5.63;5.13;;;29.10;99.90;;;;;;5292435;28;20020;-70
2023/07/05 13:42:03;;;;;;;6.68;6.18;;;29.30;99.90;;;;;;5292520;28;20020;-70
2023/07/05 13:44:34;;;;;;;7.95;6.53;;;29.40;99.90;;;;;;5292028;28;20063;-70
2023/07/05 13:47:06;;;;;;;6.68;5.82;;;29.20;99.90;;;;;;5292449;28;20055;-71
2023/07/05 13:49:37;;;;;;;6.03;5.53;;;29.00;99.90;;;;;;5292376;28;20031;-70
2023/07/05 13:52:14;;;;;;;7.03;6.32;;;29.00;99.90;;;;;;5292152;28;20078;-70
2023/07/05 13:54:47;;;;;;;8.93;8.00;;;28.90;99.90;;;;;;5292103;28;20047;-70
2023/07/05 13:57:19;;;;;;;9.38;8.55;;;28.70;99.90;;;;;;5292137;28;20035;-70